sensor_id;sensor_type;location;lat;lon;timestamp;pressure;altitude;pressure_sealevel;temperature;humidity
70053;BME280;57398;52.032;4.376;2023-08-20T00:01:12;102701.28;;;16.70;nan
70053;BME280;57398;52.032;4.376;2023-08-20T00:06:51;102679.84;;;16.73;nan
70053;BME280;57398;52.032;4.376;2023-08-20T00:09:39;102675.63;;;16.72;nan
70053;BME280;57398;52.032;4.376;2023-08-20T00:12:28;102672.75;;;16.74;nan
70053;BME280;57398;52.032;4.376;2023-08-20T00:18:07;102669.13;;;16.75;nan
70053;BME280;57398;52.032;4.376;2023-08-20T00:20:55;102666.28;;;16.76;nan
70053;BME280;57398;52.032;4.376;2023-08-20T00:23:44;102657.47;;;16.71;nan
70053;BME280;57398;52.032;4.376;2023-08-20T00:26:34;102682.66;;;16.72;nan
70053;BME280;57398;52.032;4.376;2023-08-20T00:29:22;102683.47;;;16.79;nan
70053;BME280;57398;52.032;4.376;2023-08-20T00:32:15;102692.09;;;16.86;nan
70053;BME280;57398;52.032;4.376;2023-08-20T00:35:04;102668.19;;;16.94;nan
70053;BME280;57398;52.032;4.376;2023-08-20T00:37:54;102698.44;;;16.97;nan
70053;BME280;57398;52.032;4.376;2023-08-20T00:40:44;102662.88;;;17.01;nan
70053;BME280;57398;52.032;4.376;2023-08-20T00:43:32;102646.31;;;17.01;nan
70053;BME280;57398;52.032;4.376;2023-08-20T00:46:21;102656.63;;;17.02;nan
70053;BME280;57398;52.032;4.376;2023-08-20T00:49:10;102649.75;;;17.01;nan
70053;BME280;57398;52.032;4.376;2023-08-20T00:54:48;102657.22;;;17.04;nan
70053;BME280;57398;52.032;4.376;2023-08-20T01:00:24;102670.47;;;17.09;nan
70053;BME280;57398;52.032;4.376;2023-08-20T01:03:12;102686.44;;;17.08;nan
70053;BME280;57398;52.032;4.376;2023-08-20T01:06:09;102693.31;;;17.09;nan
70053;BME280;57398;52.032;4.376;2023-08-20T01:11:56;102684.03;;;17.06;nan
70053;BME280;57398;52.032;4.376;2023-08-20T01:14:44;102706.25;;;17.04;nan
70053;BME280;57398;52.032;4.376;2023-08-20T01:20:23;102710.69;;;16.85;nan
70053;BME280;57398;52.032;4.376;2023-08-20T01:23:48;102724.25;;;16.75;nan
70053;BME280;57398;52.032;4.376;2023-08-20T01:27:07;102753.19;;;16.62;nan
70053;BME280;57398;52.032;4.376;2023-08-20T01:30:00;102763.94;;;16.53;nan
70053;BME280;57398;52.032;4.376;2023-08-20T01:32:50;102807.94;;;16.51;nan
70053;BME280;57398;52.032;4.376;2023-08-20T01:35:39;102836.22;;;16.49;nan
70053;BME280;57398;52.032;4.376;2023-08-20T01:38:28;102819.69;;;16.42;nan
70053;BME280;57398;52.032;4.376;2023-08-20T01:41:16;102787.44;;;16.35;nan
70053;BME280;57398;52.032;4.376;2023-08-20T01:44:04;102786.03;;;16.32;nan
70053;BME280;57398;52.032;4.376;2023-08-20T01:46:54;102797.38;;;16.26;nan
70053;BME280;57398;52.032;4.376;2023-08-20T01:49:42;102780.31;;;16.10;nan
70053;BME280;57398;52.032;4.376;2023-08-20T01:52:30;102710.47;;;16.16;nan
70053;BME280;57398;52.032;4.376;2023-08-20T01:58:07;102598.81;;;16.08;nan
70053;BME280;57398;52.032;4.376;2023-08-20T02:00:55;102593.38;;;16.03;nan
70053;BME280;57398;52.032;4.376;2023-08-20T02:06:32;102551.13;;;15.93;nan
70053;BME280;57398;52.032;4.376;2023-08-20T02:12:09;102563.06;;;15.82;nan
70053;BME280;57398;52.032;4.376;2023-08-20T02:14:57;102523.75;;;15.82;nan
70053;BME280;57398;52.032;4.376;2023-08-20T02:17:45;102457.91;;;15.79;nan
70053;BME280;57398;52.032;4.376;2023-08-20T02:20:35;102404.69;;;15.78;nan
70053;BME280;57398;52.032;4.376;2023-08-20T02:23:23;102371.31;;;15.67;nan
70053;BME280;57398;52.032;4.376;2023-08-20T02:29:00;102360.28;;;15.58;nan
70053;BME280;57398;52.032;4.376;2023-08-20T02:31:49;102323.81;;;15.57;nan
70053;BME280;57398;52.032;4.376;2023-08-20T02:34:37;102320.13;;;15.64;nan
70053;BME280;57398;52.032;4.376;2023-08-20T02:37:27;102305.44;;;15.63;nan
70053;BME280;57398;52.032;4.376;2023-08-20T02:40:15;102289.34;;;15.60;nan
70053;BME280;57398;52.032;4.376;2023-08-20T02:43:03;102250.63;;;15.62;nan
70053;BME280;57398;52.032;4.376;2023-08-20T02:45:51;102255.22;;;15.66;nan
70053;BME280;57398;52.032;4.376;2023-08-20T02:48:40;102212.00;;;15.57;nan
70053;BME280;57398;52.032;4.376;2023-08-20T02:51:28;102206.19;;;15.55;nan
70053;BME280;57398;52.032;4.376;2023-08-20T02:57:05;102177.16;;;15.57;nan
70053;BME280;57398;52.032;4.376;2023-08-20T02:59:54;102155.34;;;15.63;nan
70053;BME280;57398;52.032;4.376;2023-08-20T03:02:42;102115.09;;;15.57;nan
70053;BME280;57398;52.032;4.376;2023-08-20T03:05:30;102098.97;;;15.60;nan
70053;BME280;57398;52.032;4.376;2023-08-20T03:08:18;102083.25;;;15.60;nan
70053;BME280;57398;52.032;4.376;2023-08-20T03:11:08;102056.91;;;15.55;nan
70053;BME280;57398;52.032;4.376;2023-08-20T03:13:56;102008.03;;;15.49;nan
70053;BME280;57398;52.032;4.376;2023-08-20T03:16:44;101974.00;;;15.49;nan
70053;BME280;57398;52.032;4.376;2023-08-20T03:22:21;101661.47;;;15.55;nan
70053;BME280;57398;52.032;4.376;2023-08-20T03:25:09;101580.97;;;15.50;nan
70053;BME280;57398;52.032;4.376;2023-08-20T03:27:59;101583.97;;;15.42;nan
70053;BME280;57398;52.032;4.376;2023-08-20T03:30:47;101546.41;;;15.37;nan
70053;BME280;57398;52.032;4.376;2023-08-20T03:33:35;101550.28;;;15.34;nan
70053;BME280;57398;52.032;4.376;2023-08-20T03:36:24;101539.16;;;15.27;nan
70053;BME280;57398;52.032;4.376;2023-08-20T03:42:00;101535.75;;;15.26;nan
70053;BME280;57398;52.032;4.376;2023-08-20T03:44:50;101540.78;;;15.28;nan
70053;BME280;57398;52.032;4.376;2023-08-20T03:47:38;101525.84;;;15.28;nan
70053;BME280;57398;52.032;4.376;2023-08-20T03:50:26;101523.69;;;15.25;nan
70053;BME280;57398;52.032;4.376;2023-08-20T03:53:15;101528.69;;;15.27;nan
70053;BME280;57398;52.032;4.376;2023-08-20T03:56:03;101522.78;;;15.32;nan
70053;BME280;57398;52.032;4.376;2023-08-20T03:58:52;101528.91;;;15.25;nan
70053;BME280;57398;52.032;4.376;2023-08-20T04:04:29;101516.91;;;15.13;nan
70053;BME280;57398;52.032;4.376;2023-08-20T04:07:18;101529.56;;;15.04;nan
70053;BME280;57398;52.032;4.376;2023-08-20T04:10:07;101542.53;;;14.99;nan
70053;BME280;57398;52.032;4.376;2023-08-20T04:12:56;101544.03;;;14.95;nan
70053;BME280;57398;52.032;4.376;2023-08-20T04:15:44;101552.56;;;14.90;nan
70053;BME280;57398;52.032;4.376;2023-08-20T04:18:34;101558.94;;;14.82;nan
70053;BME280;57398;52.032;4.376;2023-08-20T04:21:22;101560.06;;;14.86;nan
70053;BME280;57398;52.032;4.376;2023-08-20T04:24:10;101560.88;;;14.87;nan
70053;BME280;57398;52.032;4.376;2023-08-20T04:26:59;101563.81;;;14.91;nan
70053;BME280;57398;52.032;4.376;2023-08-20T04:29:47;101558.81;;;14.89;nan
70053;BME280;57398;52.032;4.376;2023-08-20T04:35:24;101554.03;;;14.86;nan
70053;BME280;57398;52.032;4.376;2023-08-20T04:38:13;101545.28;;;14.80;nan
70053;BME280;57398;52.032;4.376;2023-08-20T04:41:01;101538.44;;;14.79;nan
70053;BME280;57398;52.032;4.376;2023-08-20T04:43:49;101533.00;;;14.81;nan
70053;BME280;57398;52.032;4.376;2023-08-20T04:46:38;101535.84;;;14.79;nan
70053;BME280;57398;52.032;4.376;2023-08-20T04:49:26;101527.66;;;14.76;nan
70053;BME280;57398;52.032;4.376;2023-08-20T04:52:16;101518.00;;;14.76;nan
70053;BME280;57398;52.032;4.376;2023-08-20T04:55:06;101514.47;;;14.82;nan
70053;BME280;57398;52.032;4.376;2023-08-20T04:57:54;101516.63;;;14.85;nan
70053;BME280;57398;52.032;4.376;2023-08-20T05:00:43;101505.13;;;14.86;nan
70053;BME280;57398;52.032;4.376;2023-08-20T05:03:31;101503.88;;;15.01;nan
70053;BME280;57398;52.032;4.376;2023-08-20T05:06:20;101513.19;;;14.97;nan
70053;BME280;57398;52.032;4.376;2023-08-20T05:09:09;101486.34;;;15.01;nan
70053;BME280;57398;52.032;4.376;2023-08-20T05:11:57;101443.00;;;15.05;nan
70053;BME280;57398;52.032;4.376;2023-08-20T05:14:46;101454.59;;;15.10;nan
70053;BME280;57398;52.032;4.376;2023-08-20T05:17:34;101448.88;;;15.13;nan
70053;BME280;57398;52.032;4.376;2023-08-20T05:20:22;101461.75;;;15.14;nan
70053;BME280;57398;52.032;4.376;2023-08-20T05:23:11;101425.19;;;15.19;nan
70053;BME280;57398;52.032;4.376;2023-08-20T05:26:00;101412.88;;;15.20;nan
70053;BME280;57398;52.032;4.376;2023-08-20T05:28:48;101411.81;;;15.33;nan
70053;BME280;57398;52.032;4.376;2023-08-20T05:31:36;101396.03;;;15.44;nan
70053;BME280;57398;52.032;4.376;2023-08-20T05:34:25;101372.63;;;15.55;nan
70053;BME280;57398;52.032;4.376;2023-08-20T05:37:13;101354.06;;;15.56;nan
70053;BME280;57398;52.032;4.376;2023-08-20T05:40:01;101340.25;;;15.61;nan
70053;BME280;57398;52.032;4.376;2023-08-20T05:42:51;101341.25;;;15.72;nan
70053;BME280;57398;52.032;4.376;2023-08-20T05:45:39;101333.13;;;15.73;nan
70053;BME280;57398;52.032;4.376;2023-08-20T05:48:27;101314.78;;;15.90;nan
70053;BME280;57398;52.032;4.376;2023-08-20T05:51:16;101309.81;;;15.94;nan
70053;BME280;57398;52.032;4.376;2023-08-20T05:54:04;101303.56;;;15.95;nan
70053;BME280;57398;52.032;4.376;2023-08-20T05:56:52;101298.88;;;15.97;nan
70053;BME280;57398;52.032;4.376;2023-08-20T05:59:42;101291.88;;;16.02;nan
70053;BME280;57398;52.032;4.376;2023-08-20T06:02:30;101305.81;;;16.08;nan
70053;BME280;57398;52.032;4.376;2023-08-20T06:05:19;101307.59;;;16.24;nan
70053;BME280;57398;52.032;4.376;2023-08-20T06:08:07;101310.28;;;16.29;nan
70053;BME280;57398;52.032;4.376;2023-08-20T06:10:55;101316.69;;;16.39;nan
70053;BME280;57398;52.032;4.376;2023-08-20T06:13:43;101322.53;;;16.46;nan
70053;BME280;57398;52.032;4.376;2023-08-20T06:19:21;101328.50;;;16.63;nan
70053;BME280;57398;52.032;4.376;2023-08-20T06:22:09;101324.03;;;16.64;nan
70053;BME280;57398;52.032;4.376;2023-08-20T06:24:58;101343.22;;;16.69;nan
70053;BME280;57398;52.032;4.376;2023-08-20T06:27:46;101341.53;;;16.80;nan
70053;BME280;57398;52.032;4.376;2023-08-20T06:33:23;101425.31;;;16.87;nan
70053;BME280;57398;52.032;4.376;2023-08-20T06:36:12;101375.03;;;16.95;nan
70053;BME280;57398;52.032;4.376;2023-08-20T06:39:00;101394.19;;;16.95;nan
70053;BME280;57398;52.032;4.376;2023-08-20T06:41:48;101406.38;;;17.07;nan
70053;BME280;57398;52.032;4.376;2023-08-20T06:44:36;101427.47;;;17.17;nan
70053;BME280;57398;52.032;4.376;2023-08-20T06:47:24;101426.72;;;17.22;nan
70053;BME280;57398;52.032;4.376;2023-08-20T06:53:02;101462.78;;;17.31;nan
70053;BME280;57398;52.032;4.376;2023-08-20T06:55:52;101478.84;;;17.35;nan
70053;BME280;57398;52.032;4.376;2023-08-20T07:01:29;101512.09;;;17.51;nan
70053;BME280;57398;52.032;4.376;2023-08-20T07:04:17;101536.09;;;17.60;nan
70053;BME280;57398;52.032;4.376;2023-08-20T07:07:06;101544.78;;;17.66;nan
70053;BME280;57398;52.032;4.376;2023-08-20T07:09:59;101563.00;;;17.72;nan
70053;BME280;57398;52.032;4.376;2023-08-20T07:12:47;101594.03;;;17.75;nan
70053;BME280;57398;52.032;4.376;2023-08-20T07:15:35;101591.53;;;17.86;nan
70053;BME280;57398;52.032;4.376;2023-08-20T07:18:23;101618.16;;;17.94;nan
70053;BME280;57398;52.032;4.376;2023-08-20T07:21:12;101647.88;;;17.95;nan
70053;BME280;57398;52.032;4.376;2023-08-20T07:24:02;101663.69;;;18.00;nan
70053;BME280;57398;52.032;4.376;2023-08-20T07:26:50;101694.84;;;18.13;nan
70053;BME280;57398;52.032;4.376;2023-08-20T07:35:16;101724.91;;;18.23;nan
70053;BME280;57398;52.032;4.376;2023-08-20T07:38:05;101725.03;;;18.33;nan
70053;BME280;57398;52.032;4.376;2023-08-20T07:40:54;101716.19;;;18.44;nan
70053;BME280;57398;52.032;4.376;2023-08-20T07:43:43;101733.13;;;18.53;nan
70053;BME280;57398;52.032;4.376;2023-08-20T07:49:19;101711.59;;;18.61;nan
70053;BME280;57398;52.032;4.376;2023-08-20T07:52:07;101745.91;;;18.72;nan
70053;BME280;57398;52.032;4.376;2023-08-20T07:54:55;101756.53;;;18.82;nan
70053;BME280;57398;52.032;4.376;2023-08-20T07:57:45;101760.47;;;18.79;nan
70053;BME280;57398;52.032;4.376;2023-08-20T08:00:35;101774.22;;;18.87;nan
70053;BME280;57398;52.032;4.376;2023-08-20T08:03:24;101811.44;;;19.00;nan
70053;BME280;57398;52.032;4.376;2023-08-20T08:06:13;101787.34;;;19.14;nan
70053;BME280;57398;52.032;4.376;2023-08-20T08:09:17;101845.78;;;19.11;nan
70053;BME280;57398;52.032;4.376;2023-08-20T08:12:06;101802.94;;;19.20;nan
70053;BME280;57398;52.032;4.376;2023-08-20T08:14:56;101832.78;;;19.31;nan
70053;BME280;57398;52.032;4.376;2023-08-20T08:23:20;101837.91;;;19.53;nan
70053;BME280;57398;52.032;4.376;2023-08-20T08:26:08;101872.72;;;19.55;nan
70053;BME280;57398;52.032;4.376;2023-08-20T08:28:59;101877.88;;;19.72;nan
70053;BME280;57398;52.032;4.376;2023-08-20T08:34:36;101896.84;;;19.74;nan
70053;BME280;57398;52.032;4.376;2023-08-20T08:37:24;101918.59;;;19.92;nan
70053;BME280;57398;52.032;4.376;2023-08-20T08:40:13;101923.69;;;20.08;nan
70053;BME280;57398;52.032;4.376;2023-08-20T08:43:01;101927.97;;;20.15;nan
70053;BME280;57398;52.032;4.376;2023-08-20T08:45:50;101947.50;;;20.19;nan
70053;BME280;57398;52.032;4.376;2023-08-20T08:48:40;101943.56;;;20.79;nan
70053;BME280;57398;52.032;4.376;2023-08-20T08:51:30;101932.94;;;22.43;nan
70053;BME280;57398;52.032;4.376;2023-08-20T08:54:19;101994.38;;;23.05;nan
70053;BME280;57398;52.032;4.376;2023-08-20T08:57:08;102079.16;;;23.60;nan
70053;BME280;57398;52.032;4.376;2023-08-20T08:59:56;102110.31;;;24.47;nan
70053;BME280;57398;52.032;4.376;2023-08-20T09:02:44;102126.03;;;23.70;nan
70053;BME280;57398;52.032;4.376;2023-08-20T09:08:32;102169.00;;;24.99;nan
70053;BME280;57398;52.032;4.376;2023-08-20T09:11:21;102231.88;;;24.84;nan
70053;BME280;57398;52.032;4.376;2023-08-20T09:14:21;102196.66;;;25.65;nan
70053;BME280;57398;52.032;4.376;2023-08-20T09:19:57;101067.66;;;25.03;nan
70053;BME280;57398;52.032;4.376;2023-08-20T09:22:49;101021.75;;;25.20;nan
70053;BME280;57398;52.032;4.376;2023-08-20T09:25:38;101002.34;;;25.37;nan
70053;BME280;57398;52.032;4.376;2023-08-20T09:28:26;100928.25;;;25.27;nan
70053;BME280;57398;52.032;4.376;2023-08-20T09:31:14;100476.56;;;24.62;nan
70053;BME280;57398;52.032;4.376;2023-08-20T09:34:03;100429.00;;;25.12;nan
70053;BME280;57398;52.032;4.376;2023-08-20T09:36:51;100219.41;;;25.35;nan
70053;BME280;57398;52.032;4.376;2023-08-20T09:39:41;100270.34;;;25.86;nan
70053;BME280;57398;52.032;4.376;2023-08-20T09:42:31;100244.78;;;25.32;nan
70053;BME280;57398;52.032;4.376;2023-08-20T09:45:20;100362.44;;;25.08;nan
70053;BME280;57398;52.032;4.376;2023-08-20T09:48:09;100247.03;;;24.97;nan
70053;BME280;57398;52.032;4.376;2023-08-20T09:50:59;100332.13;;;24.55;nan
70053;BME280;57398;52.032;4.376;2023-08-20T09:53:56;100341.94;;;24.75;nan
70053;BME280;57398;52.032;4.376;2023-08-20T09:56:51;100288.34;;;24.61;nan
70053;BME280;57398;52.032;4.376;2023-08-20T09:59:42;100258.25;;;24.69;nan
70053;BME280;57398;52.032;4.376;2023-08-20T10:02:31;100286.63;;;24.77;nan
70053;BME280;57398;52.032;4.376;2023-08-20T10:05:22;100295.44;;;24.27;nan
70053;BME280;57398;52.032;4.376;2023-08-20T10:08:10;100290.38;;;24.13;nan
70053;BME280;57398;52.032;4.376;2023-08-20T10:11:00;100138.59;;;24.53;nan
70053;BME280;57398;52.032;4.376;2023-08-20T10:13:49;100152.16;;;24.73;nan
70053;BME280;57398;52.032;4.376;2023-08-20T10:16:38;100209.13;;;24.63;nan
70053;BME280;57398;52.032;4.376;2023-08-20T10:19:27;100172.16;;;24.37;nan
70053;BME280;57398;52.032;4.376;2023-08-20T10:22:16;100268.78;;;24.65;nan
70053;BME280;57398;52.032;4.376;2023-08-20T10:25:06;100211.50;;;24.01;nan
70053;BME280;57398;52.032;4.376;2023-08-20T10:27:54;100194.56;;;24.48;nan
70053;BME280;57398;52.032;4.376;2023-08-20T10:33:55;100247.63;;;24.69;nan
70053;BME280;57398;52.032;4.376;2023-08-20T10:36:50;100304.31;;;24.31;nan
70053;BME280;57398;52.032;4.376;2023-08-20T10:39:38;100269.94;;;24.35;nan
70053;BME280;57398;52.032;4.376;2023-08-20T10:42:29;100324.84;;;23.92;nan
70053;BME280;57398;52.032;4.376;2023-08-20T10:45:19;100276.28;;;24.21;nan
70053;BME280;57398;52.032;4.376;2023-08-20T10:48:11;100298.28;;;24.01;nan
70053;BME280;57398;52.032;4.376;2023-08-20T10:54:04;100354.44;;;24.33;nan
70053;BME280;57398;52.032;4.376;2023-08-20T10:56:57;100348.03;;;24.34;nan
70053;BME280;57398;52.032;4.376;2023-08-20T10:59:56;100328.31;;;24.14;nan
70053;BME280;57398;52.032;4.376;2023-08-20T11:02:46;100388.94;;;24.33;nan
70053;BME280;57398;52.032;4.376;2023-08-20T11:05:36;100416.53;;;24.40;nan
70053;BME280;57398;52.032;4.376;2023-08-20T11:08:24;100409.66;;;24.10;nan
70053;BME280;57398;52.032;4.376;2023-08-20T11:11:13;100285.47;;;24.03;nan
70053;BME280;57398;52.032;4.376;2023-08-20T11:14:05;100340.91;;;24.46;nan
70053;BME280;57398;52.032;4.376;2023-08-20T11:16:54;100198.94;;;24.44;nan
70053;BME280;57398;52.032;4.376;2023-08-20T11:19:42;100413.00;;;24.78;nan
70053;BME280;57398;52.032;4.376;2023-08-20T11:22:34;100407.44;;;24.71;nan
70053;BME280;57398;52.032;4.376;2023-08-20T11:25:23;100441.91;;;25.01;nan
70053;BME280;57398;52.032;4.376;2023-08-20T11:28:11;100536.78;;;24.79;nan
70053;BME280;57398;52.032;4.376;2023-08-20T11:31:00;100606.06;;;24.95;nan
70053;BME280;57398;52.032;4.376;2023-08-20T11:33:52;100539.94;;;25.23;nan
70053;BME280;57398;52.032;4.376;2023-08-20T11:36:40;100503.88;;;24.93;nan
70053;BME280;57398;52.032;4.376;2023-08-20T11:39:30;100497.09;;;25.25;nan
70053;BME280;57398;52.032;4.376;2023-08-20T11:42:18;100594.75;;;24.77;nan
70053;BME280;57398;52.032;4.376;2023-08-20T11:45:10;100381.28;;;24.61;nan
70053;BME280;57398;52.032;4.376;2023-08-20T11:47:58;100634.28;;;24.79;nan
70053;BME280;57398;52.032;4.376;2023-08-20T11:50:46;100627.00;;;25.26;nan
70053;BME280;57398;52.032;4.376;2023-08-20T11:53:34;100689.78;;;25.19;nan
70053;BME280;57398;52.032;4.376;2023-08-20T11:56:24;100646.19;;;25.41;nan
70053;BME280;57398;52.032;4.376;2023-08-20T11:59:15;100735.28;;;25.47;nan
70053;BME280;57398;52.032;4.376;2023-08-20T12:02:04;100704.47;;;25.16;nan
70053;BME280;57398;52.032;4.376;2023-08-20T12:04:54;100730.59;;;25.53;nan
70053;BME280;57398;52.032;4.376;2023-08-20T12:10:42;100765.47;;;25.81;nan
70053;BME280;57398;52.032;4.376;2023-08-20T12:16:22;100555.16;;;24.46;nan
70053;BME280;57398;52.032;4.376;2023-08-20T12:19:10;100452.03;;;24.86;nan
70053;BME280;57398;52.032;4.376;2023-08-20T12:22:02;100638.44;;;25.27;nan
70053;BME280;57398;52.032;4.376;2023-08-20T12:24:51;100635.16;;;25.72;nan
70053;BME280;57398;52.032;4.376;2023-08-20T12:27:41;100697.63;;;26.29;nan
70053;BME280;57398;52.032;4.376;2023-08-20T12:30:30;100774.25;;;25.04;nan
70053;BME280;57398;52.032;4.376;2023-08-20T12:33:21;100657.13;;;25.81;nan
70053;BME280;57398;52.032;4.376;2023-08-20T12:36:10;100648.75;;;25.28;nan
70053;BME280;57398;52.032;4.376;2023-08-20T12:38:58;100639.41;;;25.22;nan
70053;BME280;57398;52.032;4.376;2023-08-20T12:41:47;100700.97;;;24.95;nan
70053;BME280;57398;52.032;4.376;2023-08-20T12:44:35;100654.06;;;24.25;nan
70053;BME280;57398;52.032;4.376;2023-08-20T12:47:25;100743.88;;;25.14;nan
70053;BME280;57398;52.032;4.376;2023-08-20T12:50:13;100753.53;;;25.27;nan
70053;BME280;57398;52.032;4.376;2023-08-20T12:53:02;100831.56;;;25.70;nan
70053;BME280;57398;52.032;4.376;2023-08-20T12:55:50;100834.13;;;24.76;nan
70053;BME280;57398;52.032;4.376;2023-08-20T12:58:38;100851.91;;;25.27;nan
70053;BME280;57398;52.032;4.376;2023-08-20T13:01:26;100863.88;;;25.51;nan
70053;BME280;57398;52.032;4.376;2023-08-20T13:04:16;100796.53;;;25.29;nan
70053;BME280;57398;52.032;4.376;2023-08-20T13:07:06;100940.41;;;25.45;nan
70053;BME280;57398;52.032;4.376;2023-08-20T13:09:55;100929.22;;;25.69;nan
70053;BME280;57398;52.032;4.376;2023-08-20T13:15:36;101142.09;;;25.87;nan
70053;BME280;57398;52.032;4.376;2023-08-20T13:18:25;101205.28;;;25.55;nan
70053;BME280;57398;52.032;4.376;2023-08-20T13:21:15;101198.06;;;25.56;nan
70053;BME280;57398;52.032;4.376;2023-08-20T13:24:04;101235.41;;;25.24;nan
70053;BME280;57398;52.032;4.376;2023-08-20T13:26:52;101167.13;;;24.62;nan
70053;BME280;57398;52.032;4.376;2023-08-20T13:29:40;101212.81;;;24.28;nan
70053;BME280;57398;52.032;4.376;2023-08-20T13:32:29;101264.41;;;23.58;nan
70053;BME280;57398;52.032;4.376;2023-08-20T13:38:07;101151.91;;;24.09;nan
70053;BME280;57398;52.032;4.376;2023-08-20T13:40:55;101301.16;;;23.65;nan
70053;BME280;57398;52.032;4.376;2023-08-20T13:46:32;101306.16;;;24.08;nan
70053;BME280;57398;52.032;4.376;2023-08-20T13:49:20;101133.47;;;24.27;nan
70053;BME280;57398;52.032;4.376;2023-08-20T13:52:09;101130.56;;;24.14;nan
70053;BME280;57398;52.032;4.376;2023-08-20T13:54:58;101165.84;;;23.92;nan
70053;BME280;57398;52.032;4.376;2023-08-20T14:00:34;101173.41;;;24.21;nan
70053;BME280;57398;52.032;4.376;2023-08-20T14:03:23;101211.44;;;24.84;nan
70053;BME280;57398;52.032;4.376;2023-08-20T14:08:59;101340.09;;;24.92;nan
70053;BME280;57398;52.032;4.376;2023-08-20T14:11:49;101309.03;;;25.24;nan
70053;BME280;57398;52.032;4.376;2023-08-20T14:14:37;101277.41;;;24.46;nan
70053;BME280;57398;52.032;4.376;2023-08-20T14:17:25;101308.84;;;24.66;nan
70053;BME280;57398;52.032;4.376;2023-08-20T14:20:14;101377.06;;;24.43;nan
70053;BME280;57398;52.032;4.376;2023-08-20T14:23:02;101432.94;;;24.11;nan
70053;BME280;57398;52.032;4.376;2023-08-20T14:25:50;101424.47;;;23.81;nan
70053;BME280;57398;52.032;4.376;2023-08-20T14:34:18;101298.19;;;23.52;nan
70053;BME280;57398;52.032;4.376;2023-08-20T14:37:07;101335.88;;;24.32;nan
70053;BME280;57398;52.032;4.376;2023-08-20T14:39:57;101303.94;;;24.37;nan
70053;BME280;57398;52.032;4.376;2023-08-20T14:42:45;101266.53;;;24.48;nan
70053;BME280;57398;52.032;4.376;2023-08-20T14:45:35;101384.28;;;24.79;nan
70053;BME280;57398;52.032;4.376;2023-08-20T14:48:23;101313.50;;;24.83;nan
70053;BME280;57398;52.032;4.376;2023-08-20T14:51:11;101305.44;;;25.20;nan
70053;BME280;57398;52.032;4.376;2023-08-20T14:53:59;101377.16;;;25.34;nan
70053;BME280;57398;52.032;4.376;2023-08-20T14:56:47;101396.78;;;23.87;nan
70053;BME280;57398;52.032;4.376;2023-08-20T14:59:36;101301.16;;;24.42;nan
70053;BME280;57398;52.032;4.376;2023-08-20T15:02:25;101320.44;;;24.34;nan
70053;BME280;57398;52.032;4.376;2023-08-20T15:05:14;101393.78;;;24.44;nan
70053;BME280;57398;52.032;4.376;2023-08-20T15:08:02;101405.34;;;24.98;nan
70053;BME280;57398;52.032;4.376;2023-08-20T15:10:56;101405.00;;;25.14;nan
70053;BME280;57398;52.032;4.376;2023-08-20T15:13:45;101522.03;;;25.59;nan
70053;BME280;57398;52.032;4.376;2023-08-20T15:16:34;101513.63;;;25.43;nan
70053;BME280;57398;52.032;4.376;2023-08-20T15:22:13;101436.41;;;25.57;nan
70053;BME280;57398;52.032;4.376;2023-08-20T15:25:02;101502.31;;;25.60;nan
70053;BME280;57398;52.032;4.376;2023-08-20T15:27:51;101517.44;;;25.50;nan
70053;BME280;57398;52.032;4.376;2023-08-20T15:30:40;101493.91;;;25.44;nan
70053;BME280;57398;52.032;4.376;2023-08-20T15:33:28;101374.13;;;25.58;nan
70053;BME280;57398;52.032;4.376;2023-08-20T15:36:18;101463.75;;;25.48;nan
70053;BME280;57398;52.032;4.376;2023-08-20T15:39:06;101398.50;;;25.51;nan
70053;BME280;57398;52.032;4.376;2023-08-20T15:41:54;101458.59;;;25.07;nan
70053;BME280;57398;52.032;4.376;2023-08-20T15:44:44;101473.72;;;25.20;nan
70053;BME280;57398;52.032;4.376;2023-08-20T15:47:32;101485.16;;;25.07;nan
70053;BME280;57398;52.032;4.376;2023-08-20T15:50:21;101447.84;;;24.76;nan
70053;BME280;57398;52.032;4.376;2023-08-20T15:53:10;101409.81;;;24.89;nan
70053;BME280;57398;52.032;4.376;2023-08-20T15:55:59;101431.28;;;24.93;nan
70053;BME280;57398;52.032;4.376;2023-08-20T15:58:47;101318.91;;;25.23;nan
70053;BME280;57398;52.032;4.376;2023-08-20T16:01:35;101413.53;;;25.02;nan
70053;BME280;57398;52.032;4.376;2023-08-20T16:04:24;101445.44;;;24.10;nan
70053;BME280;57398;52.032;4.376;2023-08-20T16:07:12;101394.63;;;24.17;nan
70053;BME280;57398;52.032;4.376;2023-08-20T16:12:51;101382.22;;;24.76;nan
70053;BME280;57398;52.032;4.376;2023-08-20T16:15:39;101401.28;;;24.78;nan
70053;BME280;57398;52.032;4.376;2023-08-20T16:18:27;101404.63;;;24.48;nan
70053;BME280;57398;52.032;4.376;2023-08-20T16:21:16;101325.34;;;24.77;nan
70053;BME280;57398;52.032;4.376;2023-08-20T16:24:04;101358.72;;;24.70;nan
70053;BME280;57398;52.032;4.376;2023-08-20T16:29:42;101412.09;;;24.32;nan
70053;BME280;57398;52.032;4.376;2023-08-20T16:32:30;101462.53;;;24.04;nan
70053;BME280;57398;52.032;4.376;2023-08-20T16:38:07;101359.72;;;23.82;nan
70053;BME280;57398;52.032;4.376;2023-08-20T16:40:59;101392.94;;;23.79;nan
70053;BME280;57398;52.032;4.376;2023-08-20T16:43:49;101344.69;;;23.77;nan
70053;BME280;57398;52.032;4.376;2023-08-20T16:46:39;101401.84;;;23.70;nan
70053;BME280;57398;52.032;4.376;2023-08-20T16:49:27;101380.03;;;23.73;nan
70053;BME280;57398;52.032;4.376;2023-08-20T16:52:15;101355.66;;;23.71;nan
70053;BME280;57398;52.032;4.376;2023-08-20T16:55:04;101346.63;;;23.58;nan
70053;BME280;57398;52.032;4.376;2023-08-20T16:57:53;101369.50;;;23.07;nan
70053;BME280;57398;52.032;4.376;2023-08-20T17:00:42;101335.75;;;22.94;nan
70053;BME280;57398;52.032;4.376;2023-08-20T17:03:31;101301.97;;;23.05;nan
70053;BME280;57398;52.032;4.376;2023-08-20T17:06:19;101293.16;;;23.09;nan